Time;durP1;ratioP1;P1;durP2;ratioP2;P2;SDS_P1;SDS_P2;PMS_P1;PMS_P2;Temp;Humidity;BMP_temperature;BMP_pressure;BME280_temperature;BME280_humidity;BME280_pressure;Samples;Min_cycle;Max_cycle;Signal;HPM_P1;HPM_P2
2022/02/19 00:00:50;;;;;;;0.20;0.20;;;;;;;;;;5022851;28;20030;-82
2022/02/19 00:03:16;;;;;;;0.20;0.20;;;;;;;;;;5023010;28;20040;-82
2022/02/19 00:05:42;;;;;;;0.10;0.10;;;;;;;;;;5023690;28;20037;-82
2022/02/19 00:08:13;;;;;;;0.20;0.20;;;;;;;;;;5022990;28;20040;-79
2022/02/19 00:10:39;;;;;;;0.20;0.20;;;;;;;;;;5022434;28;20029;-83
2022/02/19 00:13:05;;;;;;;0.20;0.20;;;;;;;;;;5022456;28;20030;-84
2022/02/19 00:15:31;;;;;;;0.10;0.10;;;;;;;;;;5023163;28;20071;-88
2022/02/19 00:17:57;;;;;;;0.20;0.20;;;;;;;;;;5023948;28;20061;-88
2022/02/19 00:20:24;;;;;;;0.20;0.20;;;;;;;;;;5023840;28;20060;-88
2022/02/19 00:22:50;;;;;;;0.10;0.10;;;;;;;;;;5023342;28;20662;-88
2022/02/19 00:25:16;;;;;;;0.10;0.10;;;;;;;;;;5023870;28;20029;-89
2022/02/19 00:27:44;;;;;;;0.20;0.20;;;;;;;;;;5023195;28;20038;-89
2022/02/19 00:30:10;;;;;;;0.20;0.20;;;;;;;;;;5019925;28;20037;-87
2022/02/19 00:32:36;;;;;;;0.10;0.10;;;;;;;;;;5023239;28;20191;-88
2022/02/19 00:35:02;;;;;;;0.10;0.10;;;;;;;;;;5023612;28;20132;-88
2022/02/19 00:37:29;;;;;;;0.10;0.10;;;;;;;;;;5023122;28;20512;-88
2022/02/19 00:39:55;;;;;;;0.10;0.10;;;;;;;;;;5023212;28;20029;-88
2022/02/19 00:42:21;;;;;;;0.20;0.20;;;;;;;;;;5023238;28;20029;-88
2022/02/19 00:44:47;;;;;;;0.20;0.20;;;;;;;;;;5023731;28;20112;-87
2022/02/19 00:47:14;;;;;;;0.20;0.20;;;;;;;;;;5023519;28;20057;-88
2022/02/19 00:49:40;;;;;;;0.20;0.20;;;;;;;;;;5023192;28;20037;-89
2022/02/19 00:52:06;;;;;;;0.20;0.20;;;;;;;;;;5023764;28;20021;-89
2022/02/19 00:54:32;;;;;;;0.10;0.10;;;;;;;;;;5034762;28;20072;-89
2022/02/19 00:56:59;;;;;;;0.20;0.20;;;;;;;;;;5024016;28;20032;-89
2022/02/19 00:59:25;;;;;;;0.20;0.20;;;;;;;;;;5025485;28;20060;-89
2022/02/19 01:01:51;;;;;;;0.20;0.20;;;;;;;;;;5027065;28;20032;-89
2022/02/19 01:04:17;;;;;;;0.10;0.10;;;;;;;;;;5026517;28;20051;-89
2022/02/19 01:06:44;;;;;;;0.20;0.20;;;;;;;;;;5025792;28;20060;-89
2022/02/19 01:09:10;;;;;;;0.20;0.20;;;;;;;;;;5026773;28;20033;-88
2022/02/19 01:11:40;;;;;;;0.20;0.20;;;;;;;;;;5026062;28;20060;-88
2022/02/19 01:14:09;;;;;;;0.20;0.20;;;;;;;;;;5025996;28;20076;-87
2022/02/19 01:16:35;;;;;;;0.10;0.10;;;;;;;;;;5026695;28;20029;-88
2022/02/19 01:19:01;;;;;;;0.20;0.20;;;;;;;;;;5026395;28;20151;-86
2022/02/19 01:21:27;;;;;;;0.20;0.20;;;;;;;;;;5025371;28;20817;-85
2022/02/19 01:23:53;;;;;;;0.20;0.20;;;;;;;;;;5024375;28;20460;-86
2022/02/19 01:26:19;;;;;;;0.20;0.20;;;;;;;;;;5025226;28;20029;-85
2022/02/19 01:28:45;;;;;;;0.10;0.10;;;;;;;;;;5025343;28;20029;-84
2022/02/19 01:31:11;;;;;;;0.20;0.20;;;;;;;;;;5025156;28;20408;-84
2022/02/19 01:33:37;;;;;;;0.10;0.10;;;;;;;;;;5024964;28;20037;-83
2022/02/19 01:36:04;;;;;;;0.10;0.10;;;;;;;;;;5025877;28;20040;-83
2022/02/19 01:38:30;;;;;;;0.10;0.10;;;;;;;;;;5025186;28;20124;-84
2022/02/19 01:40:57;;;;;;;0.20;0.20;;;;;;;;;;5025364;28;20034;-84
2022/02/19 01:43:23;;;;;;;0.20;0.20;;;;;;;;;;5025388;28;20572;-85
2022/02/19 01:45:49;;;;;;;0.10;0.10;;;;;;;;;;5025043;28;20034;-86
2022/02/19 01:48:15;;;;;;;0.20;0.20;;;;;;;;;;5025193;28;20029;-84
2022/02/19 01:50:42;;;;;;;0.10;0.10;;;;;;;;;;5024953;28;20043;-84
2022/02/19 01:53:08;;;;;;;0.20;0.20;;;;;;;;;;5024915;28;20102;-87
2022/02/19 01:55:34;;;;;;;0.20;0.20;;;;;;;;;;5024784;28;21074;-87
2022/02/19 01:58:02;;;;;;;0.10;0.10;;;;;;;;;;5024846;28;20064;-87
2022/02/19 02:00:28;;;;;;;0.20;0.20;;;;;;;;;;5024698;28;20075;-87
2022/02/19 02:02:56;;;;;;;0.20;0.20;;;;;;;;;;5025361;28;20029;-85
2022/02/19 02:05:22;;;;;;;0.20;0.20;;;;;;;;;;5025452;28;20037;-87
2022/02/19 02:07:49;;;;;;;0.20;0.20;;;;;;;;;;5025258;28;20091;-88
2022/02/19 02:10:15;;;;;;;0.20;0.20;;;;;;;;;;5024042;28;20073;-87
2022/02/19 02:12:41;;;;;;;0.20;0.20;;;;;;;;;;5037164;28;20041;-88
2022/02/19 02:15:28;;;;;;;0.20;0.20;;;;;;;;;;5026065;28;20052;-88
2022/02/19 02:17:54;;;;;;;;;;;;;;;;;;5019853;28;20041;-89
2022/02/19 02:20:20;;;;;;;0.30;0.30;;;;;;;;;;5024638;28;19924;-87
2022/02/19 02:22:46;;;;;;;0.20;0.20;;;;;;;;;;5027248;28;20033;-90
2022/02/19 02:25:13;;;;;;;0.20;0.20;;;;;;;;;;5027958;28;20041;-90
2022/02/19 02:27:39;;;;;;;0.10;0.10;;;;;;;;;;5027857;28;20052;-90
2022/02/19 02:30:05;;;;;;;0.20;0.20;;;;;;;;;;5027453;28;20064;-90
2022/02/19 02:32:31;;;;;;;0.20;0.20;;;;;;;;;;5028538;28;20041;-87
2022/02/19 02:34:57;;;;;;;0.10;0.10;;;;;;;;;;5025148;28;20065;-88
2022/02/19 02:37:24;;;;;;;0.10;0.10;;;;;;;;;;5024631;28;20476;-87
2022/02/19 02:39:51;;;;;;;0.10;0.10;;;;;;;;;;5024899;28;20037;-88
2022/02/19 02:42:18;;;;;;;0.10;0.10;;;;;;;;;;5025001;28;20095;-88
2022/02/19 02:44:44;;;;;;;0.20;0.20;;;;;;;;;;5024908;28;20405;-88
2022/02/19 02:47:10;;;;;;;0.10;0.10;;;;;;;;;;5023824;28;20144;-87
2022/02/19 02:49:37;;;;;;;0.10;0.10;;;;;;;;;;5024954;28;20033;-87
2022/02/19 02:52:03;;;;;;;0.10;0.10;;;;;;;;;;5025020;28;20025;-86
2022/02/19 02:54:30;;;;;;;0.20;0.20;;;;;;;;;;5023745;28;20584;-88
2022/02/19 02:56:56;;;;;;;0.10;0.10;;;;;;;;;;5024042;28;20029;-86
2022/02/19 02:59:22;;;;;;;0.10;0.10;;;;;;;;;;5023041;28;20127;-83
2022/02/19 03:01:48;;;;;;;0.20;0.20;;;;;;;;;;5023248;28;20905;-83
2022/02/19 03:04:14;;;;;;;0.10;0.10;;;;;;;;;;5023425;28;20280;-83
2022/02/19 03:06:46;;;;;;;0.20;0.20;;;;;;;;;;5023533;28;20275;-78
2022/02/19 03:09:13;;;;;;;0.10;0.10;;;;;;;;;;5020241;28;20096;-80
2022/02/19 03:11:39;;;;;;;0.20;0.20;;;;;;;;;;5021766;28;20048;-79
2022/02/19 03:14:10;;;;;;;0.30;0.30;;;;;;;;;;5022819;28;20037;-78
2022/02/19 03:16:36;;;;;;;0.20;0.20;;;;;;;;;;5023130;28;20036;-79
2022/02/19 03:19:03;;;;;;;0.20;0.20;;;;;;;;;;5019171;28;20711;-79
2022/02/19 03:21:29;;;;;;;0.20;0.20;;;;;;;;;;5021807;28;20029;-79
2022/02/19 03:23:55;;;;;;;0.20;0.20;;;;;;;;;;5024060;28;20036;-79
2022/02/19 03:26:21;;;;;;;0.20;0.20;;;;;;;;;;5018963;28;20284;-80
2022/02/19 03:28:48;;;;;;;0.20;0.20;;;;;;;;;;5021859;28;20032;-78
2022/02/19 03:31:14;;;;;;;0.10;0.10;;;;;;;;;;5023165;28;20040;-78
2022/02/19 03:33:40;;;;;;;0.20;0.20;;;;;;;;;;5023210;28;20041;-78
2022/02/19 03:36:06;;;;;;;0.20;0.20;;;;;;;;;;5023729;28;20021;-79
2022/02/19 03:38:32;;;;;;;0.20;0.20;;;;;;;;;;5023239;28;20044;-80
2022/02/19 03:40:58;;;;;;;0.20;0.20;;;;;;;;;;5022788;28;20034;-80
2022/02/19 03:43:24;;;;;;;0.10;0.10;;;;;;;;;;5018308;28;20615;-80
2022/02/19 03:45:50;;;;;;;0.20;0.20;;;;;;;;;;5023048;28;20274;-79
2022/02/19 03:48:16;;;;;;;0.20;0.20;;;;;;;;;;5021941;28;20964;-79
2022/02/19 03:50:42;;;;;;;0.20;0.20;;;;;;;;;;5022941;28;20033;-80
2022/02/19 03:53:09;;;;;;;0.20;0.20;;;;;;;;;;5022577;28;20137;-79
2022/02/19 03:55:35;;;;;;;0.20;0.20;;;;;;;;;;5020918;28;20037;-80
2022/02/19 03:58:02;;;;;;;0.20;0.20;;;;;;;;;;5022646;28;20056;-80
2022/02/19 04:03:13;;;;;;;0.10;0.10;;;;;;;;;;5023348;28;20664;-80
2022/02/19 04:06:13;;;;;;;0.10;0.10;;;;;;;;;;5021173;28;20037;-80
2022/02/19 04:08:39;;;;;;;0.15;0.15;;;;;;;;;;5022650;28;20102;-78
2022/02/19 04:11:05;;;;;;;0.20;0.20;;;;;;;;;;5022418;28;20029;-79
2022/02/19 04:13:31;;;;;;;0.20;0.20;;;;;;;;;;5022510;28;20033;-79
2022/02/19 04:15:57;;;;;;;0.10;0.10;;;;;;;;;;5018171;28;20870;-81
2022/02/19 04:18:23;;;;;;;0.10;0.10;;;;;;;;;;5022662;28;20040;-80
2022/02/19 04:20:49;;;;;;;0.20;0.20;;;;;;;;;;5023419;28;20041;-81
2022/02/19 04:23:15;;;;;;;0.20;0.20;;;;;;;;;;5022626;28;20037;-80
2022/02/19 04:25:41;;;;;;;0.20;0.20;;;;;;;;;;5022438;28;20033;-80
2022/02/19 04:28:09;;;;;;;0.10;0.10;;;;;;;;;;5018281;28;20567;-80
2022/02/19 04:30:35;;;;;;;0.20;0.20;;;;;;;;;;5022780;28;20049;-80
2022/02/19 04:33:01;;;;;;;0.20;0.20;;;;;;;;;;5023383;28;20033;-81
2022/02/19 04:35:28;;;;;;;0.20;0.20;;;;;;;;;;5018184;28;20033;-80
2022/02/19 04:37:54;;;;;;;0.10;0.10;;;;;;;;;;5026528;28;20061;-80
2022/02/19 04:40:44;;;;;;;0.10;0.10;;;;;;;;;;5026356;28;20038;-81
2022/02/19 04:43:10;;;;;;;0.10;0.10;;;;;;;;;;5026578;28;20075;-82
2022/02/19 04:45:37;;;;;;;0.20;0.20;;;;;;;;;;5026189;28;20049;-81
2022/02/19 04:48:03;;;;;;;0.20;0.20;;;;;;;;;;5027142;28;20029;-80
2022/02/19 04:50:29;;;;;;;0.20;0.20;;;;;;;;;;5026248;28;20298;-79
2022/02/19 04:52:55;;;;;;;0.20;0.20;;;;;;;;;;5025939;28;20095;-80
2022/02/19 04:55:21;;;;;;;0.20;0.20;;;;;;;;;;5025950;28;20519;-81
2022/02/19 04:57:47;;;;;;;0.20;0.20;;;;;;;;;;5026441;28;20037;-80
2022/02/19 05:00:15;;;;;;;0.30;0.30;;;;;;;;;;5026729;28;20037;-80
2022/02/19 05:02:41;;;;;;;0.20;0.20;;;;;;;;;;5026026;28;20095;-80
2022/02/19 05:05:07;;;;;;;0.20;0.20;;;;;;;;;;5026212;28;20032;-84
2022/02/19 05:07:33;;;;;;;0.20;0.20;;;;;;;;;;5025785;28;20638;-84
2022/02/19 05:09:59;;;;;;;0.20;0.20;;;;;;;;;;5025562;28;20028;-84
2022/02/19 05:12:26;;;;;;;0.10;0.10;;;;;;;;;;5025970;28;20072;-84
2022/02/19 05:14:52;;;;;;;0.20;0.20;;;;;;;;;;5026202;28;20276;-86
2022/02/19 05:17:18;;;;;;;0.20;0.20;;;;;;;;;;5025630;28;20034;-84
2022/02/19 05:19:44;;;;;;;0.20;0.20;;;;;;;;;;5025653;28;20029;-86
2022/02/19 05:22:10;;;;;;;0.20;0.20;;;;;;;;;;5025590;28;20067;-81
2022/02/19 05:24:36;;;;;;;0.20;0.20;;;;;;;;;;5025519;28;20186;-81
2022/02/19 05:27:02;;;;;;;0.20;0.20;;;;;;;;;;5026214;28;20287;-82
2022/02/19 05:29:28;;;;;;;0.20;0.20;;;;;;;;;;5025445;28;20056;-81
2022/02/19 05:31:54;;;;;;;0.30;0.30;;;;;;;;;;5025634;28;20032;-80
2022/02/19 05:34:20;;;;;;;0.30;0.30;;;;;;;;;;5025271;28;20057;-85
2022/02/19 05:36:46;;;;;;;0.20;0.20;;;;;;;;;;5023537;28;20017;-85
2022/02/19 05:39:13;;;;;;;0.30;0.30;;;;;;;;;;5026020;28;20091;-83
2022/02/19 05:41:40;;;;;;;0.20;0.20;;;;;;;;;;5025154;28;20037;-83
2022/02/19 05:44:06;;;;;;;0.20;0.20;;;;;;;;;;5025106;28;20505;-82
2022/02/19 05:46:33;;;;;;;0.30;0.30;;;;;;;;;;5020170;28;20037;-82
2022/02/19 05:48:59;;;;;;;0.30;0.30;;;;;;;;;;5025437;28;20036;-81
2022/02/19 05:51:25;;;;;;;0.20;0.20;;;;;;;;;;5025562;28;20108;-79
2022/02/19 05:53:51;;;;;;;0.20;0.20;;;;;;;;;;5025776;28;20041;-85
2022/02/19 05:56:17;;;;;;;0.20;0.20;;;;;;;;;;5024935;28;20579;-83
2022/02/19 05:58:43;;;;;;;0.20;0.20;;;;;;;;;;5024832;28;20599;-83
2022/02/19 06:01:10;;;;;;;0.30;0.30;;;;;;;;;;5024942;28;20509;-82
2022/02/19 06:03:38;;;;;;;0.20;0.20;;;;;;;;;;5024894;28;20371;-89
2022/02/19 06:06:05;;;;;;;0.30;0.30;;;;;;;;;;5026510;28;20444;-87
2022/02/19 06:08:31;;;;;;;0.30;0.30;;;;;;;;;;5025282;28;20037;-90
2022/02/19 06:10:57;;;;;;;0.20;0.20;;;;;;;;;;5026787;28;20034;-88
2022/02/19 06:13:23;;;;;;;0.30;0.30;;;;;;;;;;5026397;28;20036;-87
2022/02/19 06:15:49;;;;;;;0.10;0.10;;;;;;;;;;5025414;28;20441;-89
2022/02/19 06:18:16;;;;;;;0.20;0.20;;;;;;;;;;5025795;28;20808;-90
2022/02/19 06:20:42;;;;;;;0.28;0.28;;;;;;;;;;5026809;28;20037;-85
2022/02/19 06:23:08;;;;;;;0.20;0.20;;;;;;;;;;5024235;28;20037;-83
2022/02/19 06:25:35;;;;;;;0.20;0.20;;;;;;;;;;5024526;28;20284;-84
2022/02/19 06:28:01;;;;;;;0.30;0.30;;;;;;;;;;5024292;28;20116;-82
2022/02/19 06:30:27;;;;;;;0.30;0.30;;;;;;;;;;5023659;28;20097;-82
2022/02/19 06:32:53;;;;;;;0.30;0.30;;;;;;;;;;5012153;28;20040;-85
2022/02/19 06:35:19;;;;;;;0.40;0.40;;;;;;;;;;5024988;28;20037;-86
2022/02/19 06:37:47;;;;;;;0.30;0.30;;;;;;;;;;5023935;28;20041;-87
2022/02/19 06:40:14;;;;;;;0.30;0.30;;;;;;;;;;5024226;28;20045;-84
2022/02/19 06:42:41;;;;;;;0.30;0.30;;;;;;;;;;5010677;28;20493;-83
2022/02/19 06:45:07;;;;;;;0.30;0.30;;;;;;;;;;5024356;28;20033;-83
2022/02/19 06:47:34;;;;;;;0.30;0.30;;;;;;;;;;5023067;28;20063;-83
2022/02/19 06:50:01;;;;;;;0.50;0.50;;;;;;;;;;5023276;28;20033;-83
2022/02/19 06:52:28;;;;;;;0.32;0.32;;;;;;;;;;5023259;28;20037;-83
2022/02/19 06:54:54;;;;;;;0.60;0.60;;;;;;;;;;5023794;28;20555;-80
2022/02/19 06:57:21;;;;;;;0.60;0.60;;;;;;;;;;5023492;28;20033;-81
2022/02/19 06:59:49;;;;;;;0.30;0.30;;;;;;;;;;5023036;28;20037;-81
2022/02/19 07:02:14;;;;;;;;;;;;;;;;;;5023575;28;20034;-81
2022/02/19 07:04:40;;;;;;;0.30;0.30;;;;;;;;;;5019848;28;19917;-83
2022/02/19 07:07:07;;;;;;;0.20;0.20;;;;;;;;;;5010987;28;20455;-83
2022/02/19 07:09:33;;;;;;;0.40;0.40;;;;;;;;;;5023978;28;20837;-82
2022/02/19 07:11:59;;;;;;;0.40;0.40;;;;;;;;;;5024428;28;20123;-80
2022/02/19 07:14:25;;;;;;;0.40;0.40;;;;;;;;;;5023140;28;20049;-82
2022/02/19 07:16:51;;;;;;;0.30;0.30;;;;;;;;;;5023131;28;20037;-81
2022/02/19 07:19:19;;;;;;;0.20;0.20;;;;;;;;;;5023084;28;20637;-84
2022/02/19 07:21:46;;;;;;;0.30;0.30;;;;;;;;;;5022933;28;20056;-82
2022/02/19 07:24:12;;;;;;;0.30;0.30;;;;;;;;;;5023865;28;20079;-81
2022/02/19 07:26:39;;;;;;;0.30;0.30;;;;;;;;;;5023325;28;20033;-81
2022/02/19 07:29:05;;;;;;;0.30;0.30;;;;;;;;;;5020371;28;20033;-81
2022/02/19 07:31:31;;;;;;;0.30;0.30;;;;;;;;;;5022783;28;20033;-82
2022/02/19 07:33:57;;;;;;;0.30;0.30;;;;;;;;;;5022605;28;20107;-83
2022/02/19 07:36:23;;;;;;;0.30;0.30;;;;;;;;;;5023155;28;20417;-83
2022/02/19 07:38:49;;;;;;;0.30;0.30;;;;;;;;;;5021563;28;20900;-85
2022/02/19 07:41:15;;;;;;;0.40;0.40;;;;;;;;;;5023199;28;20029;-83
2022/02/19 07:43:41;;;;;;;0.20;0.20;;;;;;;;;;5022922;28;20428;-84
2022/02/19 07:46:07;;;;;;;0.20;0.20;;;;;;;;;;5022183;28;20485;-82
2022/02/19 07:48:33;;;;;;;0.30;0.30;;;;;;;;;;5012907;28;20524;-84
2022/02/19 07:59:13;;;;;;;0.50;0.50;;;;;;;;;;5022442;28;20047;-85
2022/02/19 08:01:39;;;;;;;0.37;0.37;;;;;;;;;;5022980;28;20116;-84
2022/02/19 08:04:05;;;;;;;0.30;0.30;;;;;;;;;;5023453;28;21044;-85
2022/02/19 08:06:32;;;;;;;0.30;0.30;;;;;;;;;;5023264;28;20037;-85
2022/02/19 08:08:58;;;;;;;;;;;;;;;;;;5025799;28;20032;-86
2022/02/19 08:11:24;;;;;;;0.40;0.40;;;;;;;;;;5024699;28;19913;-86
2022/02/19 08:13:50;;;;;;;0.40;0.40;;;;;;;;;;5026692;28;20109;-85
2022/02/19 08:16:16;;;;;;;0.30;0.30;;;;;;;;;;5026408;28;20280;-85
2022/02/19 08:18:42;;;;;;;0.40;0.40;;;;;;;;;;5026693;28;20041;-86
2022/02/19 08:21:08;;;;;;;0.40;0.40;;;;;;;;;;5027221;28;20343;-85
2022/02/19 08:23:35;;;;;;;0.30;0.30;;;;;;;;;;5027030;28;20560;-85
2022/02/19 08:26:01;;;;;;;0.30;0.30;;;;;;;;;;5027096;28;20069;-84
2022/02/19 08:28:27;;;;;;;0.20;0.20;;;;;;;;;;5026956;28;20060;-85
2022/02/19 08:30:53;;;;;;;0.10;0.10;;;;;;;;;;5026777;28;20163;-85
2022/02/19 08:33:19;;;;;;;0.10;0.10;;;;;;;;;;5026896;28;20045;-85
2022/02/19 08:35:45;;;;;;;0.20;0.20;;;;;;;;;;5026978;28;20576;-86
2022/02/19 08:38:11;;;;;;;0.35;0.35;;;;;;;;;;5026708;28;20065;-86
2022/02/19 08:40:38;;;;;;;0.20;0.20;;;;;;;;;;5026564;28;20048;-86
2022/02/19 08:43:04;;;;;;;0.40;0.40;;;;;;;;;;5026326;28;20550;-85
2022/02/19 08:45:30;;;;;;;0.20;0.20;;;;;;;;;;5026160;28;20029;-86
2022/02/19 08:48:01;;;;;;;0.30;0.30;;;;;;;;;;5026861;28;20103;-85
2022/02/19 08:50:28;;;;;;;0.40;0.40;;;;;;;;;;5026741;28;20065;-84
2022/02/19 08:52:54;;;;;;;0.50;0.50;;;;;;;;;;5025933;28;20056;-85
2022/02/19 08:55:20;;;;;;;0.60;0.60;;;;;;;;;;5025892;28;20037;-86
2022/02/19 08:57:46;;;;;;;0.20;0.20;;;;;;;;;;5026293;28;20069;-85
2022/02/19 09:00:13;;;;;;;0.30;0.30;;;;;;;;;;5026368;28;20041;-85
2022/02/19 09:02:40;;;;;;;0.20;0.20;;;;;;;;;;5025951;28;20064;-86
2022/02/19 09:05:06;;;;;;;;;;;;;;;;;;5027029;28;20033;-86
2022/02/19 09:07:35;;;;;;;0.40;0.40;;;;;;;;;;5025988;28;19909;-86
2022/02/19 09:10:01;;;;;;;0.40;0.40;;;;;;;;;;5025962;28;20467;-88
2022/02/19 09:12:28;;;;;;;0.82;0.82;;;;;;;;;;5027207;28;20025;-87
2022/02/19 09:14:54;;;;;;;;;;;;;;;;;;5026471;28;20127;-85
2022/02/19 09:17:20;;;;;;;0.40;0.40;;;;;;;;;;5025381;28;19917;-83
2022/02/19 09:19:46;;;;;;;0.50;0.50;;;;;;;;;;5024941;28;20021;-84
2022/02/19 09:22:12;;;;;;;0.50;0.50;;;;;;;;;;5024963;28;20552;-84
2022/02/19 09:24:39;;;;;;;0.50;0.50;;;;;;;;;;5024404;28;20026;-84
2022/02/19 09:27:05;;;;;;;0.30;0.30;;;;;;;;;;5023381;28;21053;-86
2022/02/19 09:29:31;;;;;;;0.40;0.40;;;;;;;;;;5024134;28;20103;-84
2022/02/19 09:31:57;;;;;;;0.40;0.40;;;;;;;;;;5024242;28;20033;-84
2022/02/19 09:34:23;;;;;;;0.30;0.30;;;;;;;;;;5024156;28;20046;-86
2022/02/19 09:36:52;;;;;;;0.30;0.30;;;;;;;;;;5024462;28;20037;-85
2022/02/19 09:39:19;;;;;;;0.30;0.30;;;;;;;;;;5024455;28;20029;-84
2022/02/19 09:41:46;;;;;;;0.30;0.30;;;;;;;;;;5024086;28;20033;-85
2022/02/19 09:44:12;;;;;;;0.30;0.30;;;;;;;;;;5023377;28;20065;-87
2022/02/19 09:46:38;;;;;;;0.30;0.30;;;;;;;;;;5024035;28;20043;-85
2022/02/19 09:49:05;;;;;;;0.30;0.30;;;;;;;;;;5023005;28;20288;-85
2022/02/19 09:51:31;;;;;;;0.30;0.30;;;;;;;;;;5023179;28;20122;-87
2022/02/19 09:53:57;;;;;;;0.30;0.30;;;;;;;;;;5023444;28;20045;-85
2022/02/19 09:56:27;;;;;;;0.40;0.40;;;;;;;;;;5024213;28;20036;-86
2022/02/19 09:58:54;;;;;;;0.30;0.30;;;;;;;;;;5023680;28;20055;-85
2022/02/19 10:01:21;;;;;;;0.30;0.30;;;;;;;;;;5024000;28;20112;-85
2022/02/19 10:03:48;;;;;;;0.40;0.40;;;;;;;;;;5022327;28;20091;-85
2022/02/19 10:06:15;;;;;;;0.40;0.40;;;;;;;;;;5024695;28;20037;-85
2022/02/19 10:08:41;;;;;;;;;;;;;;;;;;5024528;28;20033;-87
2022/02/19 10:11:07;;;;;;;0.50;0.50;;;;;;;;;;5023559;28;19909;-87
2022/02/19 10:13:33;;;;;;;0.40;0.40;;;;;;;;;;5023825;28;20316;-86
2022/02/19 10:16:00;;;;;;;0.40;0.40;;;;;;;;;;5024579;28;20188;-87
2022/02/19 10:18:26;;;;;;;0.30;0.30;;;;;;;;;;5024092;28;20063;-86
2022/02/19 10:20:53;;;;;;;0.30;0.30;;;;;;;;;;5024080;28;20026;-86
2022/02/19 10:23:20;;;;;;;0.32;0.32;;;;;;;;;;5024163;28;20025;-87
2022/02/19 10:26:04;;;;;;;0.40;0.40;;;;;;;;;;5024516;28;20069;-86
2022/02/19 10:28:30;;;;;;;0.30;0.30;;;;;;;;;;5022673;28;20068;-86
2022/02/19 10:30:56;;;;;;;0.30;0.30;;;;;;;;;;5023744;28;20416;-83
2022/02/19 10:33:26;;;;;;;0.30;0.30;;;;;;;;;;5022876;28;20037;-85
2022/02/19 10:36:05;;;;;;;0.30;0.30;;;;;;;;;;5024866;28;20033;-81
2022/02/19 10:38:50;;;;;;;0.30;0.30;;;;;;;;;;5023964;28;20025;-84
2022/02/19 10:41:16;;;;;;;0.20;0.20;;;;;;;;;;5023059;28;20037;-84
2022/02/19 10:43:43;;;;;;;0.30;0.30;;;;;;;;;;5023399;28;20052;-83
2022/02/19 10:46:11;;;;;;;0.30;0.30;;;;;;;;;;5023829;28;20033;-83
2022/02/19 10:48:37;;;;;;;0.20;0.20;;;;;;;;;;5023917;28;20033;-82
2022/02/19 10:51:08;;;;;;;0.30;0.30;;;;;;;;;;5024888;28;20029;-83
2022/02/19 10:53:36;;;;;;;0.20;0.20;;;;;;;;;;5024794;28;20041;-81
2022/02/19 10:56:09;;;;;;;0.20;0.20;;;;;;;;;;5023410;28;20028;-85
2022/02/19 10:58:35;;;;;;;0.20;0.20;;;;;;;;;;5022454;28;20128;-87
2022/02/19 11:01:03;;;;;;;0.30;0.30;;;;;;;;;;5022941;28;20029;-86
2022/02/19 11:03:29;;;;;;;0.20;0.20;;;;;;;;;;5023234;28;20171;-86
2022/02/19 11:05:57;;;;;;;0.20;0.20;;;;;;;;;;5022209;28;20033;-80
2022/02/19 11:08:23;;;;;;;0.20;0.20;;;;;;;;;;5022168;28;20788;-80
2022/02/19 11:10:50;;;;;;;0.20;0.20;;;;;;;;;;5022642;28;20033;-79
2022/02/19 11:13:17;;;;;;;0.20;0.20;;;;;;;;;;5023051;28;20037;-80
2022/02/19 11:15:44;;;;;;;0.30;0.30;;;;;;;;;;5022675;28;20444;-80
2022/02/19 11:18:10;;;;;;;0.20;0.20;;;;;;;;;;5021398;28;20021;-81
2022/02/19 11:20:36;;;;;;;0.30;0.30;;;;;;;;;;5020873;28;20041;-80
2022/02/19 11:23:03;;;;;;;0.30;0.30;;;;;;;;;;5021380;28;20087;-80
2022/02/19 11:25:29;;;;;;;0.30;0.30;;;;;;;;;;5023229;28;20108;-78
2022/02/19 11:28:01;;;;;;;0.30;0.30;;;;;;;;;;5022810;28;20036;-79
2022/02/19 11:30:28;;;;;;;0.30;0.30;;;;;;;;;;5021734;28;20103;-79
2022/02/19 11:32:54;;;;;;;;;;;;;;;;;;5021964;28;20120;-79
2022/02/19 11:35:33;;;;;;;0.20;0.20;;;;;;;;;;5022053;28;19960;-79
2022/02/19 11:37:59;;;;;;;0.20;0.20;;;;;;;;;;5022035;28;20404;-79
2022/02/19 11:40:25;;;;;;;0.30;0.30;;;;;;;;;;5021097;28;20027;-80
2022/02/19 11:42:52;;;;;;;0.20;0.20;;;;;;;;;;5020295;28;20814;-79
2022/02/19 11:45:18;;;;;;;;;;;;;;;;;;5022224;28;20409;-79
2022/02/19 11:47:45;;;;;;;0.28;0.28;;;;;;;;;;5022167;28;19916;-79
2022/02/19 11:50:18;;;;;;;0.30;0.30;;;;;;;;;;5022379;28;20112;-81
2022/02/19 11:52:45;;;;;;;0.20;0.20;;;;;;;;;;5022429;28;20040;-80
2022/02/19 11:55:30;;;;;;;0.30;0.30;;;;;;;;;;5022637;28;20049;-80
2022/02/19 11:58:00;;;;;;;0.30;0.30;;;;;;;;;;5010108;28;20083;-81
2022/02/19 12:00:42;;;;;;;0.45;0.45;;;;;;;;;;5022275;28;20497;-80
2022/02/19 12:03:23;;;;;;;0.30;0.30;;;;;;;;;;5022563;28;20136;-80
2022/02/19 12:06:08;;;;;;;0.32;0.32;;;;;;;;;;5021984;28;20033;-81
2022/02/19 12:08:46;;;;;;;0.32;0.32;;;;;;;;;;5020738;28;20029;-79
2022/02/19 12:11:13;;;;;;;0.28;0.28;;;;;;;;;;5021832;28;20047;-79
2022/02/19 12:13:46;;;;;;;0.20;0.20;;;;;;;;;;5021479;28;20041;-79
2022/02/19 12:17:03;;;;;;;0.30;0.30;;;;;;;;;;5022436;28;20030;-79
2022/02/19 12:19:42;;;;;;;0.30;0.30;;;;;;;;;;5012013;28;20515;-79
2022/02/19 12:22:27;;;;;;;0.40;0.40;;;;;;;;;;5022089;28;20040;-79
2022/02/19 12:24:53;;;;;;;0.30;0.30;;;;;;;;;;5007382;28;20025;-79
2022/02/19 12:27:19;;;;;;;0.20;0.20;;;;;;;;;;5020917;28;20120;-78
2022/02/19 12:29:50;;;;;;;0.20;0.20;;;;;;;;;;5022362;28;20113;-79
2022/02/19 12:32:20;;;;;;;0.30;0.30;;;;;;;;;;5020589;28;20056;-79
2022/02/19 12:34:53;;;;;;;0.20;0.20;;;;;;;;;;5020846;28;20037;-79
2022/02/19 12:37:19;;;;;;;0.30;0.30;;;;;;;;;;5020593;28;20116;-79
2022/02/19 12:39:45;;;;;;;0.30;0.30;;;;;;;;;;5020128;28;20030;-79
2022/02/19 12:42:22;;;;;;;0.32;0.32;;;;;;;;;;5022596;28;20043;-79
2022/02/19 12:44:58;;;;;;;0.30;0.30;;;;;;;;;;5021770;28;20025;-79
2022/02/19 12:47:24;;;;;;;0.30;0.30;;;;;;;;;;5021993;28;20505;-79
2022/02/19 12:49:50;;;;;;;0.30;0.30;;;;;;;;;;5017764;28;20040;-79
2022/02/19 12:52:16;;;;;;;0.20;0.20;;;;;;;;;;5021780;28;20041;-79
2022/02/19 12:54:43;;;;;;;0.20;0.20;;;;;;;;;;5022980;28;20132;-80
2022/02/19 12:57:09;;;;;;;;;;;;;;;;;;5024634;28;20036;-79
2022/02/19 12:59:36;;;;;;;0.30;0.30;;;;;;;;;;5024701;28;19920;-78
2022/02/19 13:02:03;;;;;;;0.20;0.20;;;;;;;;;;5024706;28;20033;-79
2022/02/19 13:04:29;;;;;;;0.20;0.20;;;;;;;;;;5025184;28;20171;-82
2022/02/19 13:06:55;;;;;;;0.20;0.20;;;;;;;;;;5025597;28;20040;-82
2022/02/19 13:09:22;;;;;;;0.20;0.20;;;;;;;;;;5023449;28;20568;-82
2022/02/19 13:11:51;;;;;;;0.30;0.30;;;;;;;;;;5024848;28;20440;-82
2022/02/19 13:14:17;;;;;;;0.95;0.95;;;;;;;;;;5024752;28;20037;-81
2022/02/19 13:17:01;;;;;;;0.40;0.40;;;;;;;;;;5023957;28;20029;-81
2022/02/19 13:19:29;;;;;;;0.30;0.30;;;;;;;;;;5024023;28;20056;-81
2022/02/19 13:22:02;;;;;;;0.30;0.30;;;;;;;;;;5024118;28;20033;-81
2022/02/19 13:24:30;;;;;;;0.20;0.20;;;;;;;;;;5021477;28;20816;-81
2022/02/19 13:27:09;;;;;;;0.20;0.20;;;;;;;;;;5024084;28;20083;-80
2022/02/19 13:29:35;;;;;;;0.30;0.30;;;;;;;;;;5024212;28;20029;-80
2022/02/19 13:32:01;;;;;;;0.30;0.30;;;;;;;;;;5022694;28;20108;-78
2022/02/19 13:34:28;;;;;;;0.30;0.30;;;;;;;;;;5024863;28;20072;-81
2022/02/19 13:36:54;;;;;;;0.30;0.30;;;;;;;;;;5024871;28;20033;-79
2022/02/19 13:39:20;;;;;;;0.30;0.30;;;;;;;;;;5025442;28;20845;-80
2022/02/19 13:41:50;;;;;;;0.30;0.30;;;;;;;;;;5025449;28;20435;-81
2022/02/19 13:44:16;;;;;;;0.30;0.30;;;;;;;;;;5024785;28;20499;-79
2022/02/19 13:46:42;;;;;;;0.30;0.30;;;;;;;;;;5024668;28;20033;-82
2022/02/19 13:49:08;;;;;;;0.70;0.70;;;;;;;;;;5024464;28;20033;-81
2022/02/19 13:51:34;;;;;;;0.98;0.98;;;;;;;;;;5024247;28;20079;-81
2022/02/19 13:54:18;;;;;;;0.40;0.40;;;;;;;;;;5024937;28;20065;-82
2022/02/19 13:56:43;;;;;;;0.30;0.30;;;;;;;;;;5024786;28;20463;-81
2022/02/19 13:59:17;;;;;;;0.30;0.30;;;;;;;;;;5024308;28;20057;-81
2022/02/19 14:01:45;;;;;;;0.30;0.30;;;;;;;;;;5024638;28;20400;-81
2022/02/19 14:04:11;;;;;;;0.50;0.50;;;;;;;;;;5024663;28;20044;-81
2022/02/19 14:06:46;;;;;;;0.45;0.45;;;;;;;;;;5023434;28;20040;-81
2022/02/19 14:09:16;;;;;;;0.30;0.30;;;;;;;;;;5023435;28;20033;-81
2022/02/19 14:12:10;;;;;;;0.40;0.40;;;;;;;;;;5024374;28;20084;-81
2022/02/19 14:14:38;;;;;;;0.30;0.30;;;;;;;;;;5022321;28;20049;-81
2022/02/19 14:17:07;;;;;;;0.30;0.30;;;;;;;;;;5023834;28;20025;-81
2022/02/19 14:19:33;;;;;;;0.30;0.30;;;;;;;;;;5024169;28;20735;-81
2022/02/19 14:22:05;;;;;;;0.30;0.30;;;;;;;;;;5024352;28;20029;-81
2022/02/19 14:24:31;;;;;;;0.25;0.25;;;;;;;;;;5024360;28;20044;-81
2022/02/19 14:27:10;;;;;;;1.02;1.02;;;;;;;;;;5022350;28;20025;-81
2022/02/19 14:29:36;;;;;;;0.95;0.95;;;;;;;;;;5023347;28;20683;-81
2022/02/19 14:32:03;;;;;;;0.32;0.32;;;;;;;;;;5024114;28;20051;-81
2022/02/19 14:34:29;;;;;;;0.40;0.40;;;;;;;;;;5023575;28;20045;-81
2022/02/19 14:36:55;;;;;;;0.30;0.30;;;;;;;;;;5023533;28;20472;-81
2022/02/19 14:39:22;;;;;;;0.40;0.40;;;;;;;;;;5023966;28;20040;-81
2022/02/19 14:41:48;;;;;;;0.30;0.30;;;;;;;;;;5024470;28;20104;-81
2022/02/19 14:44:14;;;;;;;0.40;0.40;;;;;;;;;;5023780;28;20649;-81
2022/02/19 14:46:40;;;;;;;0.30;0.30;;;;;;;;;;5023702;28;20284;-81
2022/02/19 14:49:06;;;;;;;0.30;0.30;;;;;;;;;;5023306;28;20040;-81
2022/02/19 14:51:32;;;;;;;0.50;0.50;;;;;;;;;;5023438;28;20267;-81
2022/02/19 14:53:58;;;;;;;0.40;0.40;;;;;;;;;;5024406;28;20128;-81
2022/02/19 14:56:24;;;;;;;0.30;0.30;;;;;;;;;;5023358;28;20101;-81
2022/02/19 14:58:51;;;;;;;0.30;0.30;;;;;;;;;;5023191;28;20056;-81